Heliodora, Brazil
Current Conditions -  °F | °C
As of 6:00 AM on Wednesday 22 Oct 2014 (Local Time) from SBSJ Reporting Station
Scattered Clouds Scattered Clouds  
Wind Chill: 64°   Ceiling: Unl
Heat Index: 64°   Visibility: 4mi
Dew Point: 50°   Wind: 0mph
Humidity: 59%   Direction: NA
Pressure: 30.18"   Gusts: NA
Location:  22.07°S, 45.54°W
Report Text: SBSJ 220800Z 00000KT 7000 SCT017 18/10 Q1022
Loading
Personal Weather Stations






























Interactive Weather Map
Tropical Storm Tracking
New forecast layout! Learn more

10-Day Weather Forecast

Advertisements
Track Severe Weather on mobile